Time;durP1;ratioP1;P1;durP2;ratioP2;P2;SDS_P1;SDS_P2;PMS_P1;PMS_P2;Temp;Humidity;BMP_temperature;BMP_pressure;BME280_temperature;BME280_humidity;BME280_pressure;Samples;Min_cycle;Max_cycle;Signal;HPM_P1;HPM_P2
2022/11/10 00:01:51;;;;;;;12.13;7.80;;;10.40;99.90;;;;;;5042496;28;20644;-76
2022/11/10 00:04:17;;;;;;;14.27;8.37;;;10.40;99.90;;;;;;5037379;28;20197;-76
2022/11/10 00:06:44;;;;;;;18.43;8.87;;;10.40;99.90;;;;;;5050469;28;20180;-76
2022/11/10 00:09:10;;;;;;;14.20;8.10;;;10.30;99.90;;;;;;5044920;28;20207;-76
2022/11/10 00:11:36;;;;;;;16.00;8.20;;;10.30;99.90;;;;;;5049003;28;20506;-76
2022/11/10 00:17:00;;;;;;;11.87;7.67;;;10.30;99.90;;;;;;5048192;28;20184;-76
2022/11/10 00:19:29;;;;;;;10.53;7.33;;;10.30;99.90;;;;;;5044166;28;20427;-77
2022/11/10 00:21:54;;;;;;;9.80;7.30;;;10.20;99.90;;;;;;5049485;28;20404;-76
2022/11/10 00:24:20;;;;;;;13.03;7.87;;;10.20;99.90;;;;;;5048664;28;20505;-76
2022/11/10 00:26:46;;;;;;;16.23;7.70;;;10.10;99.90;;;;;;5050495;28;20178;-76
2022/11/10 00:29:12;;;;;;;16.20;7.97;;;10.00;99.90;;;;;;5040399;28;20435;-76
2022/11/10 00:31:38;;;;;;;10.47;7.20;;;10.00;99.90;;;;;;5042048;28;20204;-76
2022/11/10 00:34:04;;;;;;;15.23;7.90;;;9.90;99.90;;;;;;5047985;28;20197;-76
2022/11/10 00:36:30;;;;;;;14.87;8.30;;;9.90;99.90;;;;;;5049889;28;20420;-76
2022/11/10 00:38:56;;;;;;;15.10;7.90;;;9.90;99.90;;;;;;5044674;28;20434;-77
2022/11/10 00:41:21;;;;;;;12.87;7.73;;;9.80;99.90;;;;;;5047500;28;20435;-76
2022/11/10 00:43:47;;;;;;;16.83;8.67;;;9.80;99.90;;;;;;5044231;28;20617;-76
2022/11/10 00:46:13;;;;;;;29.90;13.63;;;9.70;99.90;;;;;;5042936;28;20270;-76
2022/11/10 00:48:39;;;;;;;32.90;15.90;;;9.70;99.90;;;;;;5047149;28;20201;-76
2022/11/10 00:51:05;;;;;;;31.80;16.87;;;9.60;99.90;;;;;;5041255;28;20464;-76
2022/11/10 00:53:31;;;;;;;16.10;9.10;;;9.60;99.90;;;;;;5049279;28;20559;-76
2022/11/10 00:55:57;;;;;;;13.10;8.37;;;9.60;99.90;;;;;;5038183;28;20439;-76
2022/11/10 00:58:22;;;;;;;14.07;8.50;;;9.50;99.90;;;;;;5038936;28;20176;-76
2022/11/10 01:00:48;;;;;;;13.23;7.23;;;9.50;99.90;;;;;;5035382;28;20170;-76
2022/11/10 01:03:15;;;;;;;14.10;7.50;;;9.40;99.90;;;;;;5043576;28;20209;-76
2022/11/10 01:05:42;;;;;;;10.43;7.67;;;9.40;99.90;;;;;;5035040;28;20205;-75
2022/11/10 01:08:08;;;;;;;11.40;7.43;;;9.30;99.90;;;;;;5046715;28;20420;-76
2022/11/10 01:10:33;;;;;;;10.40;7.00;;;9.30;99.90;;;;;;5041921;28;20456;-76
2022/11/10 01:12:59;;;;;;;12.33;6.80;;;9.20;99.90;;;;;;5046639;28;20969;-76
2022/11/10 01:15:25;;;;;;;12.83;7.30;;;9.20;99.90;;;;;;5046765;28;20587;-77
2022/11/10 01:17:52;;;;;;;10.83;6.97;;;9.10;99.90;;;;;;5045332;28;20174;-76
2022/11/10 01:20:18;;;;;;;11.27;7.17;;;9.10;99.90;;;;;;5049061;28;20438;-76
2022/11/10 01:22:43;;;;;;;16.10;7.20;;;9.10;99.90;;;;;;5047277;28;20408;-76
2022/11/10 01:25:09;;;;;;;11.83;7.13;;;9.10;99.90;;;;;;5049514;28;20207;-76
2022/11/10 01:27:35;;;;;;;11.87;7.80;;;9.10;99.90;;;;;;5048330;28;20173;-76
2022/11/10 01:30:00;;;;;;;16.90;7.90;;;9.10;99.90;;;;;;5044648;28;20638;-76
2022/11/10 01:32:26;;;;;;;14.20;7.27;;;9.10;99.90;;;;;;5047119;28;20275;-76
2022/11/10 01:34:51;;;;;;;15.97;7.43;;;9.00;99.90;;;;;;5048752;28;20272;-76
2022/11/10 01:37:17;;;;;;;11.83;7.97;;;9.10;99.90;;;;;;5048418;28;20169;-76
2022/11/10 01:39:42;;;;;;;9.93;7.00;;;9.00;99.90;;;;;;5041735;28;20185;-76
2022/11/10 01:42:08;;;;;;;9.90;6.13;;;9.00;99.90;;;;;;5046840;28;20184;-76
2022/11/10 01:44:34;;;;;;;10.60;6.23;;;8.90;99.90;;;;;;5047250;28;20386;-76
2022/11/10 01:46:59;;;;;;;8.60;6.20;;;8.90;99.90;;;;;;5039286;28;20187;-76
2022/11/10 01:49:27;;;;;;;10.97;6.80;;;8.90;99.90;;;;;;5047472;28;20442;-76
2022/11/10 01:51:57;;;;;;;11.77;6.17;;;8.80;99.90;;;;;;5048629;28;20617;-76
2022/11/10 01:54:26;;;;;;;9.77;6.30;;;8.70;99.90;;;;;;5041947;28;20467;-76
2022/11/10 01:56:56;;;;;;;11.60;6.60;;;8.70;99.90;;;;;;5050585;28;20821;-76
2022/11/10 01:59:26;;;;;;;15.00;6.50;;;8.70;99.90;;;;;;5050813;28;20446;-76
2022/11/10 02:01:55;;;;;;;9.70;6.40;;;8.60;99.90;;;;;;5052672;28;20412;-76
2022/11/10 02:04:20;;;;;;;11.43;6.60;;;8.60;99.90;;;;;;5049850;28;20460;-76
2022/11/10 02:06:48;;;;;;;12.77;6.77;;;8.60;99.90;;;;;;5052748;28;20496;-76
2022/11/10 02:09:15;;;;;;;10.00;6.10;;;8.60;99.90;;;;;;5048627;28;20216;-76
2022/11/10 02:11:42;;;;;;;13.87;6.70;;;8.60;99.90;;;;;;5047825;28;20498;-77
2022/11/10 02:14:08;;;;;;;10.20;5.83;;;8.50;99.90;;;;;;5051843;28;20439;-76
2022/11/10 02:16:35;;;;;;;10.47;6.20;;;8.50;99.90;;;;;;5042765;28;20772;-76
2022/11/10 02:19:22;;;;;;;12.63;6.60;;;8.50;99.90;;;;;;5046838;28;20431;-76
2022/11/10 02:21:48;;;;;;;11.03;6.57;;;8.40;99.90;;;;;;5050749;28;20447;-76
2022/11/10 02:24:14;;;;;;;16.30;7.27;;;8.40;99.90;;;;;;5050661;28;21012;-76
2022/11/10 02:26:45;;;;;;;10.80;6.40;;;8.40;99.90;;;;;;5051677;28;20200;-76
2022/11/10 02:29:11;;;;;;;13.17;7.30;;;8.30;99.90;;;;;;5047874;28;20432;-76
2022/11/10 02:31:37;;;;;;;16.40;8.23;;;8.40;99.90;;;;;;5048839;28;20459;-76
2022/11/10 02:34:02;;;;;;;13.67;8.17;;;8.40;99.90;;;;;;5049607;28;20482;-76
2022/11/10 02:36:28;;;;;;;18.93;7.57;;;8.40;99.90;;;;;;5050473;28;20188;-76
2022/11/10 02:38:53;;;;;;;14.70;7.80;;;8.40;99.90;;;;;;5045689;28;20199;-76
2022/11/10 02:41:19;;;;;;;11.67;7.80;;;8.40;99.90;;;;;;5043277;28;20201;-76
2022/11/10 02:43:45;;;;;;;12.43;6.50;;;8.30;99.90;;;;;;5051007;28;20223;-76
2022/11/10 02:46:10;;;;;;;10.17;7.40;;;8.30;99.90;;;;;;5047917;28;20181;-76
2022/11/10 02:48:36;;;;;;;13.07;7.57;;;8.30;99.90;;;;;;5049595;28;20544;-76
2022/11/10 02:51:01;;;;;;;17.97;7.00;;;8.30;99.90;;;;;;5049966;28;20228;-75
2022/11/10 02:53:27;;;;;;;21.00;7.03;;;8.20;99.90;;;;;;5049743;28;20209;-76
2022/11/10 02:55:53;;;;;;;21.13;7.47;;;8.20;99.90;;;;;;5042561;28;20200;-76
2022/11/10 02:58:18;;;;;;;11.10;6.67;;;8.20;99.90;;;;;;5050668;28;20166;-76
2022/11/10 03:00:43;;;;;;;12.03;6.90;;;8.20;99.90;;;;;;5042744;28;20188;-76
2022/11/10 03:03:09;;;;;;;14.33;7.37;;;8.20;99.90;;;;;;5050510;28;20219;-77
2022/11/10 03:05:35;;;;;;;11.33;6.40;;;8.20;99.90;;;;;;5046151;28;20173;-76
2022/11/10 03:08:02;;;;;;;10.90;6.37;;;8.20;99.90;;;;;;5047734;28;20190;-76
2022/11/10 03:10:28;;;;;;;9.80;6.40;;;8.10;99.90;;;;;;5043932;28;20197;-76
2022/11/10 03:12:56;;;;;;;9.13;6.50;;;8.10;99.90;;;;;;5048004;28;20485;-76
2022/11/10 03:15:22;;;;;;;16.83;8.73;;;8.10;99.90;;;;;;5046347;28;20969;-76
2022/11/10 03:17:48;;;;;;;14.00;6.90;;;8.00;99.90;;;;;;5049469;28;20554;-76
2022/11/10 03:20:14;;;;;;;10.80;6.77;;;8.00;99.90;;;;;;5051224;28;20468;-76
2022/11/10 03:22:39;;;;;;;12.20;6.70;;;7.90;99.90;;;;;;5048156;28;20189;-77
2022/11/10 03:25:05;;;;;;;15.00;6.23;;;7.90;99.90;;;;;;5040072;28;20678;-76
2022/11/10 03:27:31;;;;;;;11.40;7.10;;;7.90;99.90;;;;;;5048728;28;20169;-76
2022/11/10 03:29:56;;;;;;;9.13;6.50;;;7.90;99.90;;;;;;5040414;28;20457;-75
2022/11/10 03:32:22;;;;;;;8.47;6.30;;;7.90;99.90;;;;;;5045150;28;20293;-76
2022/11/10 03:34:48;;;;;;;10.73;7.37;;;7.90;99.90;;;;;;5049910;28;20208;-76
2022/11/10 03:37:13;;;;;;;10.27;6.00;;;7.90;99.90;;;;;;5049072;28;20471;-76
2022/11/10 03:39:39;;;;;;;14.93;6.03;;;7.90;99.90;;;;;;5047706;28;20182;-76
2022/11/10 03:42:04;;;;;;;13.10;6.60;;;7.90;99.90;;;;;;5047945;28;20636;-76
2022/11/10 03:44:30;;;;;;;11.80;6.30;;;7.90;99.90;;;;;;5050796;28;20229;-76
2022/11/10 03:46:56;;;;;;;11.73;6.37;;;7.90;99.90;;;;;;5050144;28;20184;-75
2022/11/10 03:49:21;;;;;;;8.83;6.20;;;7.90;99.90;;;;;;5048663;28;20649;-76
2022/11/10 03:51:47;;;;;;;11.10;6.10;;;7.90;99.90;;;;;;5041543;28;20201;-76
2022/11/10 03:54:12;;;;;;;13.47;6.77;;;7.80;99.90;;;;;;5050508;28;20200;-76
2022/11/10 03:56:38;;;;;;;7.90;5.83;;;7.90;99.90;;;;;;5041925;28;20173;-76
2022/11/10 03:59:04;;;;;;;12.00;6.60;;;7.80;99.90;;;;;;5049213;28;20176;-76
2022/11/10 04:01:29;;;;;;;11.27;5.60;;;7.90;99.90;;;;;;5044490;28;20185;-77
2022/11/10 04:03:55;;;;;;;16.67;6.13;;;7.80;99.90;;;;;;5045945;28;20308;-76
2022/11/10 04:09:06;;;;;;;13.87;6.27;;;7.70;99.90;;;;;;5050269;28;20180;-76
2022/11/10 04:17:01;;;;;;;10.07;6.50;;;7.70;99.90;;;;;;5037177;28;21003;-76
2022/11/10 04:19:27;;;;;;;13.00;6.67;;;7.70;99.90;;;;;;5041514;28;20454;-76
2022/11/10 04:21:53;;;;;;;9.70;6.40;;;7.70;99.90;;;;;;5048110;28;20443;-76
2022/11/10 04:24:19;;;;;;;8.60;5.73;;;7.70;99.90;;;;;;5049630;28;21128;-76
2022/11/10 04:26:46;;;;;;;9.10;5.77;;;7.70;99.90;;;;;;5048254;28;20181;-76
2022/11/10 04:29:13;;;;;;;8.10;5.30;;;7.60;99.90;;;;;;5044757;28;20442;-76
2022/11/10 04:31:40;;;;;;;13.10;5.90;;;7.60;99.90;;;;;;5048064;28;20516;-75
2022/11/10 04:34:12;;;;;;;7.53;5.20;;;7.60;99.90;;;;;;5047373;28;20435;-75
2022/11/10 04:36:40;;;;;;;14.10;6.00;;;7.50;99.90;;;;;;5040532;28;20447;-76
2022/11/10 04:39:06;;;;;;;9.20;5.93;;;7.50;99.90;;;;;;5046904;28;20486;-76
2022/11/10 04:41:32;;;;;;;6.80;5.60;;;7.50;99.90;;;;;;5045238;28;20468;-76
2022/11/10 04:43:59;;;;;;;15.50;5.80;;;7.50;99.90;;;;;;5047043;28;20491;-76
2022/11/10 04:46:25;;;;;;;6.70;5.37;;;7.50;99.90;;;;;;5044841;28;20787;-75
2022/11/10 04:48:52;;;;;;;11.37;6.37;;;7.40;99.90;;;;;;5047898;28;20533;-75
2022/11/10 04:51:20;;;;;;;9.23;5.83;;;7.40;99.90;;;;;;5046615;28;20961;-76
2022/11/10 04:53:45;;;;;;;9.00;6.07;;;7.40;99.90;;;;;;5038532;28;20455;-76
2022/11/10 04:56:15;;;;;;;10.27;6.13;;;7.30;99.90;;;;;;5046684;28;20431;-75
2022/11/10 04:58:41;;;;;;;8.63;6.20;;;7.30;99.90;;;;;;5044610;28;20173;-76
2022/11/10 05:01:13;;;;;;;10.53;5.63;;;7.20;99.90;;;;;;5043388;28;20539;-76
2022/11/10 05:03:39;;;;;;;12.90;6.63;;;7.30;99.90;;;;;;5039009;28;21043;-76
2022/11/10 05:06:04;;;;;;;11.00;6.53;;;7.30;99.90;;;;;;5049502;28;20416;-75
2022/11/10 05:08:30;;;;;;;9.87;5.87;;;7.30;99.90;;;;;;5039626;28;20185;-76
2022/11/10 05:10:56;;;;;;;8.80;5.60;;;7.30;99.90;;;;;;5043313;28;20601;-75
2022/11/10 05:13:21;;;;;;;9.30;5.70;;;7.30;99.90;;;;;;5041330;28;20208;-76
2022/11/10 05:15:47;;;;;;;13.60;6.47;;;7.30;99.90;;;;;;5040851;28;20263;-75
2022/11/10 05:18:12;;;;;;;13.13;7.30;;;7.30;99.90;;;;;;5042404;28;20185;-75
2022/11/10 05:20:38;;;;;;;16.30;8.13;;;7.30;99.90;;;;;;5045725;28;20192;-76
2022/11/10 05:25:47;;;;;;;16.73;7.27;;;7.30;99.90;;;;;;5048944;28;20496;-75
2022/11/10 05:28:15;;;;;;;13.47;7.10;;;7.40;99.90;;;;;;5046096;28;20436;-75
2022/11/10 05:30:40;;;;;;;17.53;7.50;;;7.40;99.90;;;;;;5048685;28;20735;-76
2022/11/10 05:33:06;;;;;;;14.00;8.70;;;7.50;99.90;;;;;;5052638;28;20562;-76
2022/11/10 05:35:33;;;;;;;13.83;8.40;;;7.50;99.90;;;;;;5044742;28;20643;-76
2022/11/10 05:37:59;;;;;;;15.40;8.27;;;7.50;99.90;;;;;;5050935;28;20419;-76
2022/11/10 05:40:24;;;;;;;15.03;8.27;;;7.40;99.90;;;;;;5043164;28;20436;-76
2022/11/10 05:42:51;;;;;;;15.37;8.87;;;7.40;99.90;;;;;;5048562;28;20217;-76
2022/11/10 05:45:21;;;;;;;14.20;8.27;;;7.40;99.90;;;;;;5051567;28;20189;-76
2022/11/10 05:47:48;;;;;;;16.43;8.43;;;7.40;99.90;;;;;;5043356;28;20443;-76
2022/11/10 05:50:15;;;;;;;13.37;7.57;;;7.40;99.90;;;;;;5052823;28;20486;-76
2022/11/10 05:52:48;;;;;;;18.27;7.90;;;7.40;99.90;;;;;;5043851;28;20930;-76
2022/11/10 05:55:16;;;;;;;19.77;8.17;;;7.50;99.90;;;;;;5049953;28;20442;-76
2022/11/10 05:57:46;;;;;;;13.67;8.07;;;7.40;99.90;;;;;;5051893;28;20403;-76
2022/11/10 06:00:13;;;;;;;14.17;8.40;;;7.40;99.90;;;;;;5045619;28;20437;-76
2022/11/10 06:02:39;;;;;;;20.73;7.97;;;7.40;99.90;;;;;;5048731;28;20912;-76
2022/11/10 06:05:05;;;;;;;12.77;7.97;;;7.40;99.90;;;;;;5048024;28;20428;-76
2022/11/10 06:07:31;;;;;;;12.33;7.03;;;7.40;99.90;;;;;;5044395;28;20181;-76
2022/11/10 06:09:57;;;;;;;14.70;8.00;;;7.40;99.90;;;;;;5044047;28;20427;-75
2022/11/10 06:12:23;;;;;;;9.07;6.27;;;7.40;99.90;;;;;;5046364;28;20596;-76
2022/11/10 06:14:52;;;;;;;15.63;7.23;;;7.40;99.90;;;;;;5039617;28;20272;-76
2022/11/10 06:17:18;;;;;;;12.13;6.90;;;7.40;99.90;;;;;;5044596;28;20428;-76
2022/11/10 06:19:43;;;;;;;11.10;7.00;;;7.40;99.90;;;;;;5048189;28;20410;-76
2022/11/10 06:22:09;;;;;;;10.57;7.43;;;7.40;99.90;;;;;;5045927;28;20480;-76
2022/11/10 06:24:34;;;;;;;11.13;7.70;;;7.40;99.90;;;;;;5049816;28;20205;-76
2022/11/10 06:27:00;;;;;;;10.80;7.00;;;7.40;99.90;;;;;;5044854;28;20189;-76
2022/11/10 06:29:25;;;;;;;10.80;7.20;;;7.40;99.90;;;;;;5052418;28;20663;-76
2022/11/10 06:31:51;;;;;;;16.60;7.00;;;7.40;99.90;;;;;;5047155;28;20232;-76
2022/11/10 06:34:17;;;;;;;16.27;7.83;;;7.40;99.90;;;;;;5045746;28;20493;-76
2022/11/10 06:36:42;;;;;;;15.00;8.13;;;7.30;99.90;;;;;;5049389;28;20457;-76
2022/11/10 06:39:08;;;;;;;15.47;8.13;;;7.30;99.90;;;;;;5048455;28;20185;-75
2022/11/10 06:41:34;;;;;;;12.77;8.23;;;7.30;99.90;;;;;;5043440;28;20607;-75
2022/11/10 06:43:59;;;;;;;16.73;8.30;;;7.30;99.90;;;;;;5047942;28;20280;-76
2022/11/10 06:46:25;;;;;;;14.80;8.40;;;7.30;99.90;;;;;;5042393;28;20381;-76
2022/11/10 06:48:50;;;;;;;19.53;9.90;;;7.30;99.90;;;;;;5043832;28;20228;-76
2022/11/10 06:51:16;;;;;;;17.03;9.27;;;7.30;99.90;;;;;;5049740;28;20189;-76
2022/11/10 06:53:42;;;;;;;14.77;9.00;;;7.30;99.90;;;;;;5046128;28;20643;-75
2022/11/10 06:56:07;;;;;;;14.87;9.37;;;7.40;99.90;;;;;;5050053;28;20614;-77
2022/11/10 06:58:33;;;;;;;12.60;8.50;;;7.40;99.90;;;;;;5045377;28;20174;-76
2022/11/10 07:01:00;;;;;;;15.30;8.97;;;7.40;99.90;;;;;;5051128;28;20169;-76
2022/11/10 07:03:25;;;;;;;12.70;7.43;;;7.50;99.90;;;;;;5048269;28;20630;-76
2022/11/10 07:05:51;;;;;;;17.38;9.10;;;7.50;99.90;;;;;;5042232;28;20526;-78
2022/11/10 07:08:17;;;;;;;17.47;9.10;;;7.50;99.90;;;;;;5041185;28;20182;-78
2022/11/10 07:10:44;;;;;;;13.03;8.57;;;7.60;99.90;;;;;;5032383;28;20308;-77
2022/11/10 07:13:10;;;;;;;11.27;8.00;;;7.60;99.90;;;;;;5047907;28;20672;-77
2022/11/10 07:15:36;;;;;;;12.57;7.17;;;7.60;99.90;;;;;;5041682;28;20500;-78
2022/11/10 07:18:02;;;;;;;19.90;7.70;;;7.60;99.90;;;;;;5040591;28;20446;-76
2022/11/10 07:20:31;;;;;;;14.67;7.37;;;7.60;99.90;;;;;;5034553;28;20421;-77
2022/11/10 07:22:59;;;;;;;15.07;7.30;;;7.70;99.90;;;;;;5041325;28;20818;-77
2022/11/10 07:25:25;;;;;;;15.57;10.20;;;7.70;99.90;;;;;;5042933;28;20430;-77
2022/11/10 07:27:59;;;;;;;19.40;10.33;;;7.80;99.90;;;;;;5041062;28;20455;-77
2022/11/10 07:30:26;;;;;;;14.83;8.83;;;7.80;99.90;;;;;;5031580;28;20515;-76
2022/11/10 07:33:02;;;;;;;24.07;10.00;;;8.00;99.90;;;;;;5038375;28;20796;-76
2022/11/10 07:35:28;;;;;;;20.90;10.70;;;8.10;99.90;;;;;;5048421;28;20427;-76
2022/11/10 07:37:55;;;;;;;18.53;10.80;;;8.30;99.90;;;;;;5048894;28;20986;-77
2022/11/10 07:40:21;;;;;;;21.90;10.90;;;8.30;99.90;;;;;;5041220;28;20442;-77
2022/11/10 07:42:47;;;;;;;22.30;13.80;;;8.40;99.90;;;;;;5039177;28;20435;-77
2022/11/10 07:45:13;;;;;;;27.37;14.00;;;8.50;99.90;;;;;;5032054;28;20423;-77
2022/11/10 07:47:38;;;;;;;21.90;12.43;;;8.60;99.90;;;;;;5042063;28;20439;-76
2022/11/10 07:50:04;;;;;;;20.53;11.57;;;8.70;99.90;;;;;;5035755;28;20173;-76
2022/11/10 07:52:30;;;;;;;19.40;10.80;;;;;;;;;;5031585;28;20200;-76
2022/11/10 07:54:56;;;;;;;17.57;9.20;;;9.00;99.90;;;;;;5043663;28;20999;-76
2022/11/10 07:57:21;;;;;;;21.40;9.63;;;9.10;99.90;;;;;;5037091;28;20288;-75
2022/11/10 07:59:47;;;;;;;29.83;11.17;;;9.70;99.90;;;;;;5039982;28;20176;-76
2022/11/10 08:02:12;;;;;;;25.53;8.73;;;9.40;99.90;;;;;;5036410;28;20193;-77
2022/11/10 08:04:38;;;;;;;16.43;8.73;;;9.50;99.90;;;;;;5044170;28;20683;-76
2022/11/10 08:07:03;;;;;;;18.10;9.10;;;9.60;99.90;;;;;;5046580;28;20189;-77
2022/11/10 08:09:29;;;;;;;23.67;8.50;;;9.70;99.90;;;;;;5037640;28;20312;-76
2022/11/10 08:11:54;;;;;;;13.87;8.00;;;9.80;99.90;;;;;;5043718;28;20676;-77
2022/11/10 08:14:20;;;;;;;17.83;8.63;;;9.90;99.90;;;;;;5048991;28;20745;-78
2022/11/10 08:16:45;;;;;;;13.53;7.50;;;10.00;99.90;;;;;;5042906;28;20182;-77
2022/11/10 08:19:11;;;;;;;18.93;7.60;;;10.10;99.90;;;;;;5042195;28;20185;-78
2022/11/10 08:21:36;;;;;;;23.50;8.40;;;10.10;99.90;;;;;;5038945;28;20184;-78
2022/11/10 08:24:02;;;;;;;16.83;8.53;;;10.30;99.90;;;;;;5035153;28;20228;-78
2022/11/10 08:26:28;;;;;;;14.63;7.77;;;10.30;99.90;;;;;;5050388;28;20231;-77
2022/11/10 08:28:53;;;;;;;19.97;7.87;;;10.40;99.90;;;;;;5046669;28;20268;-79
2022/11/10 08:31:19;;;;;;;18.03;8.60;;;10.50;99.90;;;;;;5044005;28;20630;-76
2022/11/10 08:33:44;;;;;;;11.77;8.00;;;10.60;99.90;;;;;;5048236;28;20220;-77
2022/11/10 08:36:10;;;;;;;19.60;8.30;;;10.60;99.90;;;;;;5049127;28;20231;-78
2022/11/10 08:38:35;;;;;;;19.20;7.43;;;10.70;99.90;;;;;;5040023;28;20236;-77
2022/11/10 08:41:01;;;;;;;15.47;7.23;;;10.80;99.90;;;;;;5050174;28;20177;-77
2022/11/10 08:43:27;;;;;;;17.50;7.83;;;11.00;99.90;;;;;;5041581;28;20205;-78
2022/11/10 08:45:56;;;;;;;17.43;7.43;;;11.10;99.90;;;;;;5045873;28;20185;-78
2022/11/10 08:48:22;;;;;;;14.27;7.03;;;11.10;99.90;;;;;;5045710;28;20205;-77
2022/11/10 08:50:48;;;;;;;20.67;7.20;;;11.20;99.90;;;;;;5047106;28;20468;-77
2022/11/10 08:53:20;;;;;;;11.37;6.13;;;11.30;99.90;;;;;;5042885;28;20865;-77
2022/11/10 08:55:46;;;;;;;10.70;5.50;;;11.40;99.90;;;;;;5047281;28;20422;-78
2022/11/10 08:58:14;;;;;;;13.83;5.43;;;11.70;99.90;;;;;;5043269;28;20447;-78
2022/11/10 09:00:40;;;;;;;8.60;5.40;;;13.30;99.40;;;;;;5050680;28;20442;-78
2022/11/10 09:03:09;;;;;;;10.13;5.10;;;14.40;64.70;;;;;;5041042;28;20460;-77
2022/11/10 09:05:35;;;;;;;13.03;5.83;;;15.80;36.00;;;;;;5041577;28;20493;-77
2022/11/10 09:08:02;;;;;;;13.00;4.40;;;16.90;20.20;;;;;;5046571;28;21479;-76
2022/11/10 09:10:28;;;;;;;12.10;6.20;;;18.30;13.80;;;;;;5046729;28;20181;-76
2022/11/10 09:12:58;;;;;;;14.20;6.00;;;19.10;1.00;;;;;;5048480;28;20526;-76
2022/11/10 09:15:23;;;;;;;13.40;5.37;;;19.30;1.00;;;;;;5046787;28;20439;-76
2022/11/10 09:17:49;;;;;;;12.17;5.33;;;21.20;1.00;;;;;;5042739;28;20435;-75
2022/11/10 09:20:15;;;;;;;11.00;5.33;;;21.90;1.00;;;;;;5038409;28;20178;-75
2022/11/10 09:22:40;;;;;;;16.90;5.77;;;23.10;1.00;;;;;;5041621;28;20230;-76
2022/11/10 09:25:06;;;;;;;7.60;4.40;;;23.20;1.00;;;;;;5044703;28;20675;-76
2022/11/10 09:27:36;;;;;;;14.00;4.70;;;24.60;1.00;;;;;;5043725;28;20201;-75
2022/11/10 09:30:03;;;;;;;12.67;5.00;;;25.00;1.00;;;;;;5036733;28;20184;-76
2022/11/10 09:32:30;;;;;;;12.73;5.23;;;24.40;1.00;;;;;;5041501;28;20971;-76
2022/11/10 09:34:56;;;;;;;7.93;4.10;;;23.30;1.00;;;;;;5037469;28;20955;-76
2022/11/10 09:37:22;;;;;;;11.40;4.60;;;23.30;1.00;;;;;;5045326;28;20438;-76
2022/11/10 09:39:48;;;;;;;8.33;3.77;;;23.60;1.00;;;;;;5035831;28;20596;-77
2022/11/10 09:42:26;;;;;;;8.80;3.67;;;24.40;1.00;;;;;;5050060;28;20184;-76
2022/11/10 09:45:09;;;;;;;11.27;3.63;;;25.00;1.00;;;;;;5040946;28;21024;-77
2022/11/10 09:47:46;;;;;;;8.60;3.90;;;25.20;1.00;;;;;;5039930;28;20475;-76
2022/11/10 09:50:25;;;;;;;10.73;3.87;;;26.00;1.00;;;;;;5042023;28;20439;-76
2022/11/10 09:52:52;;;;;;;9.37;3.70;;;26.60;1.00;;;;;;5045922;28;20481;-77
2022/11/10 09:55:33;;;;;;;13.47;3.37;;;27.00;1.00;;;;;;5043402;28;20446;-76
2022/11/10 09:57:59;;;;;;;11.33;3.40;;;27.80;1.00;;;;;;5044656;28;20177;-76
2022/11/10 10:00:29;;;;;;;10.17;3.50;;;27.50;1.00;;;;;;5035797;28;20177;-76
2022/11/10 10:03:00;;;;;;;12.17;3.40;;;27.40;1.00;;;;;;5039639;28;20227;-76
2022/11/10 10:05:33;;;;;;;7.43;3.10;;;27.90;1.00;;;;;;5049417;28;20643;-76
2022/11/10 10:08:05;;;;;;;9.67;3.20;;;27.50;1.00;;;;;;5044078;28;20211;-77
2022/11/10 10:10:56;;;;;;;6.10;3.27;;;27.30;1.00;;;;;;5040820;28;20182;-76
2022/11/10 10:13:56;;;;;;;10.13;3.00;;;27.40;1.00;;;;;;5040210;28;20597;-76
2022/11/10 10:16:26;;;;;;;9.77;3.40;;;27.80;1.00;;;;;;5039956;28;20184;-76
2022/11/10 10:18:58;;;;;;;11.70;3.20;;;28.60;1.00;;;;;;5046666;28;20204;-76
2022/11/10 10:21:47;;;;;;;8.90;3.30;;;29.20;1.00;;;;;;5043635;28;20177;-76
2022/11/10 10:24:16;;;;;;;8.60;3.37;;;27.30;1.00;;;;;;5042855;28;20200;-76
2022/11/10 10:26:52;;;;;;;6.57;3.40;;;27.40;1.00;;;;;;5053072;28;20465;-76
2022/11/10 10:29:26;;;;;;;8.80;3.33;;;27.90;1.00;;;;;;5048864;28;20655;-77
2022/11/10 10:31:52;;;;;;;8.17;3.60;;;28.30;1.00;;;;;;5053116;28;20201;-76
2022/11/10 10:34:24;;;;;;;10.40;3.70;;;27.70;1.00;;;;;;5048379;28;20189;-76
2022/11/10 10:36:50;;;;;;;8.27;3.77;;;25.60;1.00;;;;;;5049337;28;20185;-76
2022/11/10 10:39:35;;;;;;;8.80;3.40;;;24.50;1.00;;;;;;5042332;28;20556;-76
2022/11/10 10:42:00;;;;;;;10.20;3.50;;;24.70;1.00;;;;;;5044889;28;20168;-77
2022/11/10 10:44:26;;;;;;;8.00;3.40;;;25.40;1.00;;;;;;5042786;28;20532;-76
2022/11/10 10:46:57;;;;;;;9.77;3.60;;;26.20;1.00;;;;;;5042785;28;20571;-76
2022/11/10 10:49:25;;;;;;;9.43;3.60;;;27.10;1.00;;;;;;5046114;28;20616;-76
2022/11/10 10:52:11;;;;;;;9.17;3.60;;;28.50;1.00;;;;;;5043127;28;20467;-78
2022/11/10 10:54:38;;;;;;;9.73;3.50;;;28.40;1.00;;;;;;5049574;28;20451;-77
2022/11/10 10:57:30;;;;;;;8.90;3.33;;;28.60;1.00;;;;;;5049620;28;20204;-76
2022/11/10 11:00:19;;;;;;;8.67;3.50;;;28.60;1.00;;;;;;5044927;28;20188;-76
2022/11/10 11:03:01;;;;;;;13.83;4.20;;;27.90;1.00;;;;;;5042881;28;20173;-77
2022/11/10 11:05:27;;;;;;;7.27;3.43;;;27.70;1.00;;;;;;5045886;28;20263;-77
2022/11/10 11:07:58;;;;;;;5.87;3.13;;;27.20;1.00;;;;;;5048344;28;20284;-76
2022/11/10 11:10:33;;;;;;;9.90;3.43;;;27.20;1.00;;;;;;5043052;28;20260;-76
2022/11/10 11:13:15;;;;;;;8.13;2.80;;;27.20;1.00;;;;;;5048214;28;20517;-76
2022/11/10 11:15:40;;;;;;;7.50;3.20;;;27.90;1.00;;;;;;5044481;28;20451;-77
2022/11/10 11:18:14;;;;;;;6.10;2.90;;;27.30;1.00;;;;;;5045855;28;20454;-76
2022/11/10 11:20:52;;;;;;;11.57;3.07;;;26.60;1.00;;;;;;5048729;28;20664;-76
2022/11/10 11:23:31;;;;;;;10.20;3.43;;;27.60;1.00;;;;;;5032433;28;20435;-76
2022/11/10 11:26:13;;;;;;;6.93;3.00;;;28.80;1.00;;;;;;5052064;28;20403;-75
2022/11/10 11:28:46;;;;;;;5.93;2.70;;;27.80;1.00;;;;;;5047671;28;20303;-76
2022/11/10 11:31:24;;;;;;;4.90;2.40;;;28.10;1.00;;;;;;5052104;28;20458;-75
2022/11/10 11:34:07;;;;;;;8.97;3.10;;;29.50;1.00;;;;;;5044816;28;20538;-76
2022/11/10 11:37:03;;;;;;;9.13;2.57;;;30.70;1.00;;;;;;5051302;28;20251;-76
2022/11/10 11:39:47;;;;;;;8.10;2.80;;;30.00;1.00;;;;;;5043573;28;20180;-76
2022/11/10 11:42:34;;;;;;;5.80;2.60;;;30.20;1.00;;;;;;5047650;28;20173;-76
2022/11/10 11:45:43;;;;;;;6.93;2.40;;;30.00;1.00;;;;;;5042909;28;20185;-76
2022/11/10 11:48:33;;;;;;;7.33;3.00;;;30.70;1.00;;;;;;5040746;28;20208;-77
2022/11/10 11:51:19;;;;;;;9.95;2.80;;;30.80;1.00;;;;;;5041136;28;20254;-76
2022/11/10 11:54:10;;;;;;;9.25;2.75;;;31.30;1.00;;;;;;5041399;28;20204;-77
2022/11/10 11:56:41;;;;;;;5.78;2.70;;;31.00;1.00;;;;;;5043861;28;20234;-80
2022/11/10 11:59:50;;;;;;;5.68;2.45;;;30.40;1.00;;;;;;5049675;28;20224;-80
2022/11/10 12:02:30;;;;;;;4.95;2.22;;;30.20;1.00;;;;;;5030434;28;20655;-80
2022/11/10 12:05:25;;;;;;;6.93;2.78;;;30.80;1.00;;;;;;5043110;28;20180;-76
2022/11/10 12:08:47;;;;;;;9.33;2.37;;;30.20;1.00;;;;;;5046626;28;20200;-75
2022/11/10 12:11:37;;;;;;;6.60;2.60;;;28.10;1.00;;;;;;5022234;28;20592;-77
2022/11/10 12:14:15;;;;;;;5.00;2.40;;;29.60;1.00;;;;;;5047596;28;20192;-76
2022/11/10 12:16:48;;;;;;;8.35;3.10;;;30.80;1.00;;;;;;5034734;28;20184;-76
2022/11/10 12:19:45;;;;;;;6.90;2.42;;;31.70;1.00;;;;;;5040774;28;20184;-76
2022/11/10 12:22:43;;;;;;;6.72;2.45;;;32.00;1.00;;;;;;5027111;28;20298;-76
2022/11/10 12:25:23;;;;;;;10.63;2.80;;;31.60;1.00;;;;;;5038214;28;20180;-77
2022/11/10 12:27:54;;;;;;;4.88;2.33;;;30.40;1.00;;;;;;5047178;28;20195;-76
2022/11/10 12:30:20;;;;;;;6.83;2.40;;;29.60;1.00;;;;;;5045764;28;20678;-77
2022/11/10 12:33:11;;;;;;;10.30;2.60;;;27.30;1.00;;;;;;5046863;28;20197;-77
2022/11/10 12:35:41;;;;;;;5.73;2.33;;;27.30;1.00;;;;;;5045676;28;20208;-77
2022/11/10 12:38:21;;;;;;;7.23;2.50;;;28.20;1.00;;;;;;5047870;28;20184;-77
2022/11/10 12:41:01;;;;;;;8.43;2.43;;;29.50;1.00;;;;;;5050276;28;20184;-77
2022/11/10 12:43:59;;;;;;;6.03;2.27;;;29.30;1.00;;;;;;5049866;28;20200;-77
2022/11/10 12:46:24;;;;;;;6.80;2.10;;;29.10;1.00;;;;;;5040025;28;20177;-77
2022/11/10 12:49:01;;;;;;;7.97;2.37;;;29.50;1.00;;;;;;5047164;28;20564;-77
2022/11/10 12:51:50;;;;;;;8.00;2.70;;;29.40;1.00;;;;;;5049982;28;20196;-77
2022/11/10 12:54:18;;;;;;;6.17;2.60;;;28.60;1.00;;;;;;5049577;28;20597;-77
2022/11/10 12:56:55;;;;;;;5.90;2.00;;;27.20;1.00;;;;;;5050439;28;20251;-77
2022/11/10 12:59:20;;;;;;;13.87;3.13;;;25.10;1.00;;;;;;5043480;28;20172;-78
2022/11/10 13:01:50;;;;;;;7.13;2.30;;;23.30;1.00;;;;;;5050069;28;20419;-78
2022/11/10 13:04:17;;;;;;;8.40;2.60;;;21.80;1.00;;;;;;5038898;28;20219;-77
2022/11/10 13:06:52;;;;;;;5.90;2.57;;;20.90;1.00;;;;;;5041223;28;20883;-77
2022/11/10 13:09:21;;;;;;;5.90;2.40;;;20.40;1.00;;;;;;5039889;28;20435;-77
2022/11/10 13:12:02;;;;;;;4.80;2.07;;;20.00;1.00;;;;;;5046146;28;20474;-77
2022/11/10 13:14:29;;;;;;;8.27;2.80;;;19.50;1.00;;;;;;5049834;28;20789;-77